sensor_id;sensor_type;location;lat;lon;timestamp;temperature;humidity
12426;DHT22;6277;49.824;9.562;2023-02-13T00:00:07;9.60;68.80
12426;DHT22;6277;49.824;9.562;2023-02-13T00:02:33;9.50;68.80
12426;DHT22;6277;49.824;9.562;2023-02-13T00:04:59;9.40;68.80
12426;DHT22;6277;49.824;9.562;2023-02-13T00:07:24;9.30;68.80
12426;DHT22;6277;49.824;9.562;2023-02-13T00:09:50;9.10;68.80
12426;DHT22;6277;49.824;9.562;2023-02-13T00:12:15;9.00;68.80
12426;DHT22;6277;49.824;9.562;2023-02-13T00:14:41;8.90;68.90
12426;DHT22;6277;49.824;9.562;2023-02-13T00:17:06;8.80;68.80
12426;DHT22;6277;49.824;9.562;2023-02-13T00:19:32;8.60;68.80
12426;DHT22;6277;49.824;9.562;2023-02-13T00:21:58;8.50;68.90
12426;DHT22;6277;49.824;9.562;2023-02-13T00:24:23;8.40;69.00
12426;DHT22;6277;49.824;9.562;2023-02-13T00:26:49;8.30;69.10
12426;DHT22;6277;49.824;9.562;2023-02-13T00:29:15;8.10;69.10
12426;DHT22;6277;49.824;9.562;2023-02-13T00:31:40;8.00;69.10
12426;DHT22;6277;49.824;9.562;2023-02-13T00:34:06;7.90;69.10
12426;DHT22;6277;49.824;9.562;2023-02-13T00:36:32;7.80;69.10
12426;DHT22;6277;49.824;9.562;2023-02-13T00:38:57;7.70;69.00
12426;DHT22;6277;49.824;9.562;2023-02-13T00:41:23;7.60;69.10
12426;DHT22;6277;49.824;9.562;2023-02-13T00:43:49;7.50;69.00
12426;DHT22;6277;49.824;9.562;2023-02-13T00:46:15;7.30;69.00
12426;DHT22;6277;49.824;9.562;2023-02-13T00:48:41;7.20;69.00
12426;DHT22;6277;49.824;9.562;2023-02-13T00:51:07;7.10;69.10
12426;DHT22;6277;49.824;9.562;2023-02-13T00:53:34;7.00;69.20
12426;DHT22;6277;49.824;9.562;2023-02-13T00:56:01;6.90;69.40
12426;DHT22;6277;49.824;9.562;2023-02-13T00:58:26;6.80;69.50
12426;DHT22;6277;49.824;9.562;2023-02-13T01:00:53;6.70;69.60
12426;DHT22;6277;49.824;9.562;2023-02-13T01:03:19;6.70;69.70
12426;DHT22;6277;49.824;9.562;2023-02-13T01:05:45;6.60;69.80
12426;DHT22;6277;49.824;9.562;2023-02-13T01:08:12;6.50;69.80
12426;DHT22;6277;49.824;9.562;2023-02-13T01:10:38;6.50;70.00
12426;DHT22;6277;49.824;9.562;2023-02-13T01:13:04;6.40;70.10
12426;DHT22;6277;49.824;9.562;2023-02-13T01:15:30;6.40;70.20
12426;DHT22;6277;49.824;9.562;2023-02-13T01:17:56;6.30;70.20
12426;DHT22;6277;49.824;9.562;2023-02-13T01:20:23;6.30;70.20
12426;DHT22;6277;49.824;9.562;2023-02-13T01:22:49;6.20;70.20
12426;DHT22;6277;49.824;9.562;2023-02-13T01:25:14;6.20;70.30
12426;DHT22;6277;49.824;9.562;2023-02-13T01:27:40;6.10;70.30
12426;DHT22;6277;49.824;9.562;2023-02-13T01:30:06;6.10;70.30
12426;DHT22;6277;49.824;9.562;2023-02-13T01:32:38;6.00;70.30
12426;DHT22;6277;49.824;9.562;2023-02-13T01:35:04;6.00;70.30
12426;DHT22;6277;49.824;9.562;2023-02-13T01:37:30;6.00;70.40
12426;DHT22;6277;49.824;9.562;2023-02-13T01:39:56;5.90;70.40
12426;DHT22;6277;49.824;9.562;2023-02-13T01:42:28;5.90;70.50
12426;DHT22;6277;49.824;9.562;2023-02-13T01:44:59;5.80;70.50
12426;DHT22;6277;49.824;9.562;2023-02-13T01:47:28;5.70;70.90
12426;DHT22;6277;49.824;9.562;2023-02-13T01:52:37;5.60;70.50
12426;DHT22;6277;49.824;9.562;2023-02-13T01:55:06;5.60;70.40
12426;DHT22;6277;49.824;9.562;2023-02-13T01:57:33;5.50;70.30
12426;DHT22;6277;49.824;9.562;2023-02-13T02:00:08;5.50;70.40
12426;DHT22;6277;49.824;9.562;2023-02-13T02:02:38;5.40;70.70
12426;DHT22;6277;49.824;9.562;2023-02-13T02:05:05;5.30;70.70
12426;DHT22;6277;49.824;9.562;2023-02-13T02:07:33;5.30;70.80
12426;DHT22;6277;49.824;9.562;2023-02-13T02:10:10;5.30;70.90
12426;DHT22;6277;49.824;9.562;2023-02-13T02:12:59;5.20;70.90
12426;DHT22;6277;49.824;9.562;2023-02-13T02:15:26;5.20;71.00
12426;DHT22;6277;49.824;9.562;2023-02-13T02:17:51;5.10;70.60
12426;DHT22;6277;49.824;9.562;2023-02-13T02:23:32;5.10;70.90
12426;DHT22;6277;49.824;9.562;2023-02-13T02:34:33;4.90;71.30
12426;DHT22;6277;49.824;9.562;2023-02-13T02:40:31;4.80;71.30
12426;DHT22;6277;49.824;9.562;2023-02-13T02:46:10;4.80;71.40
12426;DHT22;6277;49.824;9.562;2023-02-13T02:48:44;4.70;71.40
12426;DHT22;6277;49.824;9.562;2023-02-13T02:51:47;4.70;71.20
12426;DHT22;6277;49.824;9.562;2023-02-13T02:54:21;4.70;71.20
12426;DHT22;6277;49.824;9.562;2023-02-13T02:57:12;4.60;71.00
12426;DHT22;6277;49.824;9.562;2023-02-13T02:59:40;4.60;71.00
12426;DHT22;6277;49.824;9.562;2023-02-13T03:02:28;4.60;71.00
12426;DHT22;6277;49.824;9.562;2023-02-13T03:05:33;4.50;71.00
12426;DHT22;6277;49.824;9.562;2023-02-13T03:08:17;4.50;71.40
12426;DHT22;6277;49.824;9.562;2023-02-13T03:11:04;4.40;71.30
12426;DHT22;6277;49.824;9.562;2023-02-13T03:13:49;4.40;71.60
12426;DHT22;6277;49.824;9.562;2023-02-13T03:16:18;4.40;71.80
12426;DHT22;6277;49.824;9.562;2023-02-13T03:19:04;4.50;72.80
12426;DHT22;6277;49.824;9.562;2023-02-13T03:21:58;4.50;72.20
12426;DHT22;6277;49.824;9.562;2023-02-13T03:25:11;4.60;72.60
12426;DHT22;6277;49.824;9.562;2023-02-13T03:36:26;5.00;72.90
12426;DHT22;6277;49.824;9.562;2023-02-13T03:44:39;5.10;72.90
12426;DHT22;6277;49.824;9.562;2023-02-13T03:47:07;5.20;73.40
12426;DHT22;6277;49.824;9.562;2023-02-13T03:55:09;5.50;73.50
12426;DHT22;6277;49.824;9.562;2023-02-13T03:57:59;5.50;73.30
12426;DHT22;6277;49.824;9.562;2023-02-13T04:00:51;5.60;73.20
12426;DHT22;6277;49.824;9.562;2023-02-13T04:06:11;5.80;73.50
12426;DHT22;6277;49.824;9.562;2023-02-13T04:08:37;5.90;73.40
12426;DHT22;6277;49.824;9.562;2023-02-13T04:11:13;5.90;73.30
12426;DHT22;6277;49.824;9.562;2023-02-13T04:13:59;6.00;73.50
12426;DHT22;6277;49.824;9.562;2023-02-13T04:16:41;6.10;73.60
12426;DHT22;6277;49.824;9.562;2023-02-13T04:19:08;6.20;73.70
12426;DHT22;6277;49.824;9.562;2023-02-13T04:21:36;6.20;73.50
12426;DHT22;6277;49.824;9.562;2023-02-13T04:24:02;6.30;73.50
12426;DHT22;6277;49.824;9.562;2023-02-13T04:26:41;6.40;73.60
12426;DHT22;6277;49.824;9.562;2023-02-13T04:29:08;6.50;73.70
12426;DHT22;6277;49.824;9.562;2023-02-13T04:31:34;6.50;73.50
12426;DHT22;6277;49.824;9.562;2023-02-13T04:33:59;6.60;73.60
12426;DHT22;6277;49.824;9.562;2023-02-13T04:36:25;6.60;73.50
12426;DHT22;6277;49.824;9.562;2023-02-13T04:38:50;6.70;73.60
12426;DHT22;6277;49.824;9.562;2023-02-13T04:41:16;6.80;73.50
12426;DHT22;6277;49.824;9.562;2023-02-13T04:43:42;6.80;73.50
12426;DHT22;6277;49.824;9.562;2023-02-13T04:46:08;6.80;73.40
12426;DHT22;6277;49.824;9.562;2023-02-13T04:48:33;6.90;73.40
12426;DHT22;6277;49.824;9.562;2023-02-13T04:50:59;6.90;73.40
12426;DHT22;6277;49.824;9.562;2023-02-13T04:53:24;7.00;73.40
12426;DHT22;6277;49.824;9.562;2023-02-13T04:55:51;7.00;73.40
12426;DHT22;6277;49.824;9.562;2023-02-13T04:58:16;7.00;73.40
12426;DHT22;6277;49.824;9.562;2023-02-13T05:00:42;7.00;73.40
12426;DHT22;6277;49.824;9.562;2023-02-13T05:03:09;7.10;73.40
12426;DHT22;6277;49.824;9.562;2023-02-13T05:05:35;7.10;73.50
12426;DHT22;6277;49.824;9.562;2023-02-13T05:08:02;7.10;73.40
12426;DHT22;6277;49.824;9.562;2023-02-13T05:10:28;7.10;73.40
12426;DHT22;6277;49.824;9.562;2023-02-13T05:12:54;7.20;73.40
12426;DHT22;6277;49.824;9.562;2023-02-13T05:15:19;7.20;73.30
12426;DHT22;6277;49.824;9.562;2023-02-13T05:17:46;7.20;73.30
12426;DHT22;6277;49.824;9.562;2023-02-13T05:20:13;7.20;73.20
12426;DHT22;6277;49.824;9.562;2023-02-13T05:22:52;7.30;73.20
12426;DHT22;6277;49.824;9.562;2023-02-13T05:25:38;7.20;73.40
12426;DHT22;6277;49.824;9.562;2023-02-13T05:28:05;7.20;73.20
12426;DHT22;6277;49.824;9.562;2023-02-13T05:30:51;7.20;73.20
12426;DHT22;6277;49.824;9.562;2023-02-13T05:33:16;7.30;73.20
12426;DHT22;6277;49.824;9.562;2023-02-13T05:35:42;7.30;73.30
12426;DHT22;6277;49.824;9.562;2023-02-13T05:38:07;7.30;73.30
12426;DHT22;6277;49.824;9.562;2023-02-13T05:40:33;7.30;73.30
12426;DHT22;6277;49.824;9.562;2023-02-13T05:42:58;7.30;73.30
12426;DHT22;6277;49.824;9.562;2023-02-13T05:45:24;7.30;73.30
12426;DHT22;6277;49.824;9.562;2023-02-13T05:47:49;7.30;73.30
12426;DHT22;6277;49.824;9.562;2023-02-13T05:50:15;7.30;73.30
12426;DHT22;6277;49.824;9.562;2023-02-13T05:52:41;7.30;73.30
12426;DHT22;6277;49.824;9.562;2023-02-13T05:55:06;7.30;73.40
12426;DHT22;6277;49.824;9.562;2023-02-13T05:57:32;7.30;73.40
12426;DHT22;6277;49.824;9.562;2023-02-13T05:59:57;7.30;73.30
12426;DHT22;6277;49.824;9.562;2023-02-13T06:02:23;7.30;73.40
12426;DHT22;6277;49.824;9.562;2023-02-13T06:04:48;7.30;73.30
12426;DHT22;6277;49.824;9.562;2023-02-13T06:07:14;7.30;73.40
12426;DHT22;6277;49.824;9.562;2023-02-13T06:09:40;7.30;73.40
12426;DHT22;6277;49.824;9.562;2023-02-13T06:12:05;7.30;73.30
12426;DHT22;6277;49.824;9.562;2023-02-13T06:14:31;7.30;73.40
12426;DHT22;6277;49.824;9.562;2023-02-13T06:16:56;7.30;73.30
12426;DHT22;6277;49.824;9.562;2023-02-13T06:19:22;7.30;73.30
12426;DHT22;6277;49.824;9.562;2023-02-13T06:21:47;7.20;73.20
12426;DHT22;6277;49.824;9.562;2023-02-13T06:24:13;7.20;73.30
12426;DHT22;6277;49.824;9.562;2023-02-13T06:26:38;7.20;73.30
12426;DHT22;6277;49.824;9.562;2023-02-13T06:29:04;7.10;73.20
12426;DHT22;6277;49.824;9.562;2023-02-13T06:31:29;7.20;73.40
12426;DHT22;6277;49.824;9.562;2023-02-13T06:33:55;7.10;73.30
12426;DHT22;6277;49.824;9.562;2023-02-13T06:36:20;7.10;73.30
12426;DHT22;6277;49.824;9.562;2023-02-13T06:38:46;7.10;73.30
12426;DHT22;6277;49.824;9.562;2023-02-13T06:41:11;7.10;73.30
12426;DHT22;6277;49.824;9.562;2023-02-13T06:43:37;7.10;73.40
12426;DHT22;6277;49.824;9.562;2023-02-13T06:46:07;7.10;73.40
12426;DHT22;6277;49.824;9.562;2023-02-13T06:48:32;7.10;73.50
12426;DHT22;6277;49.824;9.562;2023-02-13T06:50:58;7.00;73.40
12426;DHT22;6277;49.824;9.562;2023-02-13T06:53:26;7.00;73.50
12426;DHT22;6277;49.824;9.562;2023-02-13T06:55:52;7.00;73.50
12426;DHT22;6277;49.824;9.562;2023-02-13T06:58:19;7.00;73.50
12426;DHT22;6277;49.824;9.562;2023-02-13T07:00:44;7.00;73.50
12426;DHT22;6277;49.824;9.562;2023-02-13T07:03:10;7.00;73.50
12426;DHT22;6277;49.824;9.562;2023-02-13T07:05:39;7.00;73.50
12426;DHT22;6277;49.824;9.562;2023-02-13T07:08:05;7.00;73.60
12426;DHT22;6277;49.824;9.562;2023-02-13T07:10:30;7.00;73.60
12426;DHT22;6277;49.824;9.562;2023-02-13T07:12:56;7.00;73.60
12426;DHT22;6277;49.824;9.562;2023-02-13T07:15:21;7.00;73.50
12426;DHT22;6277;49.824;9.562;2023-02-13T07:17:47;7.00;73.60
12426;DHT22;6277;49.824;9.562;2023-02-13T07:20:13;7.00;73.70
12426;DHT22;6277;49.824;9.562;2023-02-13T07:22:38;7.00;73.70
12426;DHT22;6277;49.824;9.562;2023-02-13T07:25:04;7.00;73.70
12426;DHT22;6277;49.824;9.562;2023-02-13T07:27:29;6.90;73.60
12426;DHT22;6277;49.824;9.562;2023-02-13T07:29:55;7.00;73.70
12426;DHT22;6277;49.824;9.562;2023-02-13T07:32:22;7.00;73.70
12426;DHT22;6277;49.824;9.562;2023-02-13T07:34:48;6.90;73.60
12426;DHT22;6277;49.824;9.562;2023-02-13T07:37:13;6.90;73.60
12426;DHT22;6277;49.824;9.562;2023-02-13T07:39:39;6.90;73.60
12426;DHT22;6277;49.824;9.562;2023-02-13T07:42:06;6.80;73.60
12426;DHT22;6277;49.824;9.562;2023-02-13T07:44:32;6.80;73.70
12426;DHT22;6277;49.824;9.562;2023-02-13T07:46:57;6.80;73.70
12426;DHT22;6277;49.824;9.562;2023-02-13T07:49:24;6.80;73.80
12426;DHT22;6277;49.824;9.562;2023-02-13T07:51:49;6.80;73.90
12426;DHT22;6277;49.824;9.562;2023-02-13T07:54:15;6.80;74.00
12426;DHT22;6277;49.824;9.562;2023-02-13T07:56:41;6.80;74.20
12426;DHT22;6277;49.824;9.562;2023-02-13T07:59:06;6.90;74.30
12426;DHT22;6277;49.824;9.562;2023-02-13T08:01:32;6.90;74.20
12426;DHT22;6277;49.824;9.562;2023-02-13T08:03:57;6.90;74.30
12426;DHT22;6277;49.824;9.562;2023-02-13T08:06:23;7.00;74.40
12426;DHT22;6277;49.824;9.562;2023-02-13T08:08:49;7.00;74.40
12426;DHT22;6277;49.824;9.562;2023-02-13T08:11:34;7.00;74.50
12426;DHT22;6277;49.824;9.562;2023-02-13T08:14:22;7.10;74.50
12426;DHT22;6277;49.824;9.562;2023-02-13T08:16:48;7.20;74.50
12426;DHT22;6277;49.824;9.562;2023-02-13T08:19:14;7.20;74.40
12426;DHT22;6277;49.824;9.562;2023-02-13T08:21:40;7.20;74.40
12426;DHT22;6277;49.824;9.562;2023-02-13T08:24:06;7.20;74.40
12426;DHT22;6277;49.824;9.562;2023-02-13T08:26:32;7.30;74.40
12426;DHT22;6277;49.824;9.562;2023-02-13T08:28:58;7.30;74.30
12426;DHT22;6277;49.824;9.562;2023-02-13T08:31:24;7.30;74.20
12426;DHT22;6277;49.824;9.562;2023-02-13T08:33:49;7.40;74.20
12426;DHT22;6277;49.824;9.562;2023-02-13T08:36:15;7.40;74.20
12426;DHT22;6277;49.824;9.562;2023-02-13T08:38:40;7.40;74.10
12426;DHT22;6277;49.824;9.562;2023-02-13T08:41:06;7.40;74.00
12426;DHT22;6277;49.824;9.562;2023-02-13T08:43:32;7.50;74.10
12426;DHT22;6277;49.824;9.562;2023-02-13T08:45:58;7.40;74.00
12426;DHT22;6277;49.824;9.562;2023-02-13T08:48:25;7.40;74.00
12426;DHT22;6277;49.824;9.562;2023-02-13T08:50:50;7.40;74.00
12426;DHT22;6277;49.824;9.562;2023-02-13T08:53:16;7.50;74.10
12426;DHT22;6277;49.824;9.562;2023-02-13T08:55:41;7.50;74.10
12426;DHT22;6277;49.824;9.562;2023-02-13T08:58:07;7.50;74.10
12426;DHT22;6277;49.824;9.562;2023-02-13T09:00:32;7.50;74.10
12426;DHT22;6277;49.824;9.562;2023-02-13T09:03:01;7.50;74.10
12426;DHT22;6277;49.824;9.562;2023-02-13T09:05:28;7.60;74.20
12426;DHT22;6277;49.824;9.562;2023-02-13T09:07:58;7.60;74.20
12426;DHT22;6277;49.824;9.562;2023-02-13T09:10:23;7.60;74.20
12426;DHT22;6277;49.824;9.562;2023-02-13T09:12:52;7.60;74.30
12426;DHT22;6277;49.824;9.562;2023-02-13T09:15:18;7.70;74.30
12426;DHT22;6277;49.824;9.562;2023-02-13T09:17:43;7.80;74.40
12426;DHT22;6277;49.824;9.562;2023-02-13T09:20:09;7.80;74.30
12426;DHT22;6277;49.824;9.562;2023-02-13T09:22:38;7.90;74.40
12426;DHT22;6277;49.824;9.562;2023-02-13T09:25:04;7.90;74.40
12426;DHT22;6277;49.824;9.562;2023-02-13T09:27:30;7.90;74.30
12426;DHT22;6277;49.824;9.562;2023-02-13T09:29:55;8.00;74.40
12426;DHT22;6277;49.824;9.562;2023-02-13T09:32:21;8.00;74.40
12426;DHT22;6277;49.824;9.562;2023-02-13T09:34:46;8.10;74.30
12426;DHT22;6277;49.824;9.562;2023-02-13T09:37:12;8.20;74.40
12426;DHT22;6277;49.824;9.562;2023-02-13T09:39:37;8.20;74.30
12426;DHT22;6277;49.824;9.562;2023-02-13T09:42:19;8.20;74.00
12426;DHT22;6277;49.824;9.562;2023-02-13T09:44:50;8.30;73.90
12426;DHT22;6277;49.824;9.562;2023-02-13T09:47:25;8.30;74.00
12426;DHT22;6277;49.824;9.562;2023-02-13T09:49:59;8.30;74.10
12426;DHT22;6277;49.824;9.562;2023-02-13T09:52:31;8.40;74.10
12426;DHT22;6277;49.824;9.562;2023-02-13T09:54:57;8.40;74.40
12426;DHT22;6277;49.824;9.562;2023-02-13T09:57:33;8.50;74.50
12426;DHT22;6277;49.824;9.562;2023-02-13T10:00:05;8.60;74.40
12426;DHT22;6277;49.824;9.562;2023-02-13T10:02:43;8.70;74.40
12426;DHT22;6277;49.824;9.562;2023-02-13T10:10:59;8.90;73.80
12426;DHT22;6277;49.824;9.562;2023-02-13T10:16:26;9.00;73.60
12426;DHT22;6277;49.824;9.562;2023-02-13T10:18:58;9.00;73.80
12426;DHT22;6277;49.824;9.562;2023-02-13T10:21:43;9.10;74.00
12426;DHT22;6277;49.824;9.562;2023-02-13T10:24:34;9.20;74.00
12426;DHT22;6277;49.824;9.562;2023-02-13T10:27:16;9.20;73.90
12426;DHT22;6277;49.824;9.562;2023-02-13T10:29:47;9.30;73.90
12426;DHT22;6277;49.824;9.562;2023-02-13T10:32:57;9.40;73.80
12426;DHT22;6277;49.824;9.562;2023-02-13T10:35:59;9.40;73.40
12426;DHT22;6277;49.824;9.562;2023-02-13T10:38:28;9.50;73.60
12426;DHT22;6277;49.824;9.562;2023-02-13T10:43:42;9.50;73.10
12426;DHT22;6277;49.824;9.562;2023-02-13T10:46:26;9.60;73.20
12426;DHT22;6277;49.824;9.562;2023-02-13T10:49:09;9.60;73.40
12426;DHT22;6277;49.824;9.562;2023-02-13T11:00:54;9.80;72.90
12426;DHT22;6277;49.824;9.562;2023-02-13T11:03:22;9.80;73.00
12426;DHT22;6277;49.824;9.562;2023-02-13T11:05:50;9.80;73.20
12426;DHT22;6277;49.824;9.562;2023-02-13T11:08:22;9.80;73.70
12426;DHT22;6277;49.824;9.562;2023-02-13T11:10:49;9.90;73.10
12426;DHT22;6277;49.824;9.562;2023-02-13T11:13:23;9.90;73.10
12426;DHT22;6277;49.824;9.562;2023-02-13T11:16:09;10.00;72.80
12426;DHT22;6277;49.824;9.562;2023-02-13T11:18:37;10.00;72.40
12426;DHT22;6277;49.824;9.562;2023-02-13T11:21:19;10.10;72.90
12426;DHT22;6277;49.824;9.562;2023-02-13T11:23:53;10.10;72.70
12426;DHT22;6277;49.824;9.562;2023-02-13T11:28:55;10.10;72.60
12426;DHT22;6277;49.824;9.562;2023-02-13T11:31:25;10.10;72.10
12426;DHT22;6277;49.824;9.562;2023-02-13T11:33:51;10.10;72.50
12426;DHT22;6277;49.824;9.562;2023-02-13T11:36:31;10.10;72.70
12426;DHT22;6277;49.824;9.562;2023-02-13T11:39:06;10.10;72.40
12426;DHT22;6277;49.824;9.562;2023-02-13T11:41:43;10.20;72.70
12426;DHT22;6277;49.824;9.562;2023-02-13T11:44:31;10.20;72.90
12426;DHT22;6277;49.824;9.562;2023-02-13T11:47:00;10.30;72.40
12426;DHT22;6277;49.824;9.562;2023-02-13T11:49:32;10.30;72.60
12426;DHT22;6277;49.824;9.562;2023-02-13T11:52:02;10.40;72.70
12426;DHT22;6277;49.824;9.562;2023-02-13T11:54:42;10.40;72.80
12426;DHT22;6277;49.824;9.562;2023-02-13T11:57:33;10.40;72.60
12426;DHT22;6277;49.824;9.562;2023-02-13T12:00:01;10.50;72.30
12426;DHT22;6277;49.824;9.562;2023-02-13T12:02:49;10.60;72.80
12426;DHT22;6277;49.824;9.562;2023-02-13T12:07:44;10.70;72.60
12426;DHT22;6277;49.824;9.562;2023-02-13T12:10:25;10.70;72.60
12426;DHT22;6277;49.824;9.562;2023-02-13T12:13:12;10.80;72.20
12426;DHT22;6277;49.824;9.562;2023-02-13T12:15:38;10.80;72.40
12426;DHT22;6277;49.824;9.562;2023-02-13T12:23:56;10.90;71.80
12426;DHT22;6277;49.824;9.562;2023-02-13T12:26:52;11.00;71.90
12426;DHT22;6277;49.824;9.562;2023-02-13T12:29:41;11.00;71.70
12426;DHT22;6277;49.824;9.562;2023-02-13T12:32:20;11.00;71.80
12426;DHT22;6277;49.824;9.562;2023-02-13T12:40:22;11.10;71.50
12426;DHT22;6277;49.824;9.562;2023-02-13T12:43:13;11.10;71.20
12426;DHT22;6277;49.824;9.562;2023-02-13T12:51:16;11.00;71.60
12426;DHT22;6277;49.824;9.562;2023-02-13T12:56:34;11.00;71.20
12426;DHT22;6277;49.824;9.562;2023-02-13T12:59:12;10.90;71.00
12426;DHT22;6277;49.824;9.562;2023-02-13T13:04:36;10.80;70.60
12426;DHT22;6277;49.824;9.562;2023-02-13T13:09:53;10.70;71.00
12426;DHT22;6277;49.824;9.562;2023-02-13T13:12:37;10.60;70.80
12426;DHT22;6277;49.824;9.562;2023-02-13T13:18:17;10.50;71.20
12426;DHT22;6277;49.824;9.562;2023-02-13T13:21:31;10.50;71.20
12426;DHT22;6277;49.824;9.562;2023-02-13T13:24:06;10.40;71.10
12426;DHT22;6277;49.824;9.562;2023-02-13T13:26:40;10.40;71.10
12426;DHT22;6277;49.824;9.562;2023-02-13T13:29:14;10.40;71.30
12426;DHT22;6277;49.824;9.562;2023-02-13T13:31:44;10.30;71.20
12426;DHT22;6277;49.824;9.562;2023-02-13T13:34:16;10.30;71.40
12426;DHT22;6277;49.824;9.562;2023-02-13T13:36:59;10.30;71.50
12426;DHT22;6277;49.824;9.562;2023-02-13T13:39:49;10.30;72.00
12426;DHT22;6277;49.824;9.562;2023-02-13T13:42:46;10.20;71.50
12426;DHT22;6277;49.824;9.562;2023-02-13T13:45:36;10.20;71.40
12426;DHT22;6277;49.824;9.562;2023-02-13T13:50:49;10.30;71.50
12426;DHT22;6277;49.824;9.562;2023-02-13T13:53:17;10.30;71.80
12426;DHT22;6277;49.824;9.562;2023-02-13T13:58:45;10.30;71.90
12426;DHT22;6277;49.824;9.562;2023-02-13T14:01:27;10.30;71.90
12426;DHT22;6277;49.824;9.562;2023-02-13T14:04:01;10.40;71.80
12426;DHT22;6277;49.824;9.562;2023-02-13T14:07:12;10.40;71.90
12426;DHT22;6277;49.824;9.562;2023-02-13T14:14:58;10.60;71.70
12426;DHT22;6277;49.824;9.562;2023-02-13T14:20:32;10.70;71.70
12426;DHT22;6277;49.824;9.562;2023-02-13T14:25:47;10.80;71.60
12426;DHT22;6277;49.824;9.562;2023-02-13T14:28:25;10.80;72.00
12426;DHT22;6277;49.824;9.562;2023-02-13T14:31:04;10.80;71.70
12426;DHT22;6277;49.824;9.562;2023-02-13T14:33:31;10.90;71.80
12426;DHT22;6277;49.824;9.562;2023-02-13T14:36:03;11.00;72.10
12426;DHT22;6277;49.824;9.562;2023-02-13T14:38:30;11.00;72.10
12426;DHT22;6277;49.824;9.562;2023-02-13T14:40:56;11.10;72.10
12426;DHT22;6277;49.824;9.562;2023-02-13T14:43:35;11.20;72.20
12426;DHT22;6277;49.824;9.562;2023-02-13T14:46:34;11.30;71.60
12426;DHT22;6277;49.824;9.562;2023-02-13T14:49:11;11.40;71.50
12426;DHT22;6277;49.824;9.562;2023-02-13T14:51:43;11.50;72.40
12426;DHT22;6277;49.824;9.562;2023-02-13T14:54:28;11.60;71.80
12426;DHT22;6277;49.824;9.562;2023-02-13T14:57:12;11.70;71.30
12426;DHT22;6277;49.824;9.562;2023-02-13T14:59:45;11.80;71.20
12426;DHT22;6277;49.824;9.562;2023-02-13T15:02:31;11.90;71.40
12426;DHT22;6277;49.824;9.562;2023-02-13T15:05:01;11.90;70.80
12426;DHT22;6277;49.824;9.562;2023-02-13T15:07:34;12.00;71.20
12426;DHT22;6277;49.824;9.562;2023-02-13T15:10:04;12.00;71.10
12426;DHT22;6277;49.824;9.562;2023-02-13T15:12:33;12.10;71.10
12426;DHT22;6277;49.824;9.562;2023-02-13T15:14:59;12.20;71.20
12426;DHT22;6277;49.824;9.562;2023-02-13T15:17:28;12.20;71.10
12426;DHT22;6277;49.824;9.562;2023-02-13T15:20:01;12.30;71.00
12426;DHT22;6277;49.824;9.562;2023-02-13T15:22:35;12.30;70.80
12426;DHT22;6277;49.824;9.562;2023-02-13T15:25:02;12.40;70.50
12426;DHT22;6277;49.824;9.562;2023-02-13T15:27:34;12.50;70.90
12426;DHT22;6277;49.824;9.562;2023-02-13T15:30:04;12.50;70.30
12426;DHT22;6277;49.824;9.562;2023-02-13T15:32:33;12.50;70.50
12426;DHT22;6277;49.824;9.562;2023-02-13T15:34:59;12.60;70.20
12426;DHT22;6277;49.824;9.562;2023-02-13T15:37:29;12.60;70.10
12426;DHT22;6277;49.824;9.562;2023-02-13T15:39:55;12.60;69.70
12426;DHT22;6277;49.824;9.562;2023-02-13T15:42:21;12.60;70.50
12426;DHT22;6277;49.824;9.562;2023-02-13T15:44:49;12.50;69.70
12426;DHT22;6277;49.824;9.562;2023-02-13T15:49:47;12.50;69.60
12426;DHT22;6277;49.824;9.562;2023-02-13T15:52:34;12.40;69.40
12426;DHT22;6277;49.824;9.562;2023-02-13T15:55:01;12.40;69.10
12426;DHT22;6277;49.824;9.562;2023-02-13T15:57:28;12.30;69.10
12426;DHT22;6277;49.824;9.562;2023-02-13T15:59:54;12.20;69.00
12426;DHT22;6277;49.824;9.562;2023-02-13T16:02:24;12.10;68.90
12426;DHT22;6277;49.824;9.562;2023-02-13T16:04:53;12.00;68.80
12426;DHT22;6277;49.824;9.562;2023-02-13T16:07:20;11.90;68.80
12426;DHT22;6277;49.824;9.562;2023-02-13T16:09:46;11.80;68.70
12426;DHT22;6277;49.824;9.562;2023-02-13T16:12:23;11.70;68.70
12426;DHT22;6277;49.824;9.562;2023-02-13T16:15:00;11.60;68.50
12426;DHT22;6277;49.824;9.562;2023-02-13T16:17:36;11.50;68.40
12426;DHT22;6277;49.824;9.562;2023-02-13T16:20:06;11.30;68.40
12426;DHT22;6277;49.824;9.562;2023-02-13T16:28:02;11.00;68.70
12426;DHT22;6277;49.824;9.562;2023-02-13T16:43:55;10.20;68.70
12426;DHT22;6277;49.824;9.562;2023-02-13T16:51:45;9.90;68.90
12426;DHT22;6277;49.824;9.562;2023-02-13T16:54:24;9.80;69.00
12426;DHT22;6277;49.824;9.562;2023-02-13T16:56:56;9.60;69.10
12426;DHT22;6277;49.824;9.562;2023-02-13T17:02:30;9.40;69.10
12426;DHT22;6277;49.824;9.562;2023-02-13T17:10:32;9.10;69.20
12426;DHT22;6277;49.824;9.562;2023-02-13T17:13:24;8.90;69.10
12426;DHT22;6277;49.824;9.562;2023-02-13T17:15:50;8.80;69.10
12426;DHT22;6277;49.824;9.562;2023-02-13T17:18:16;8.70;69.10
12426;DHT22;6277;49.824;9.562;2023-02-13T17:20:43;8.60;69.20
12426;DHT22;6277;49.824;9.562;2023-02-13T17:23:17;8.50;69.20
12426;DHT22;6277;49.824;9.562;2023-02-13T17:25:43;8.40;69.30
12426;DHT22;6277;49.824;9.562;2023-02-13T17:28:20;8.30;69.30
12426;DHT22;6277;49.824;9.562;2023-02-13T17:30:48;8.20;69.40
12426;DHT22;6277;49.824;9.562;2023-02-13T17:33:20;8.10;69.40
12426;DHT22;6277;49.824;9.562;2023-02-13T17:35:46;8.00;69.50
12426;DHT22;6277;49.824;9.562;2023-02-13T17:38:11;7.90;69.50
12426;DHT22;6277;49.824;9.562;2023-02-13T17:40:39;7.80;69.50
12426;DHT22;6277;49.824;9.562;2023-02-13T17:43:05;7.70;69.70
12426;DHT22;6277;49.824;9.562;2023-02-13T17:45:32;7.70;69.80
12426;DHT22;6277;49.824;9.562;2023-02-13T17:47:58;7.60;69.80
12426;DHT22;6277;49.824;9.562;2023-02-13T17:50:25;7.50;69.80
12426;DHT22;6277;49.824;9.562;2023-02-13T17:52:51;7.40;69.90
12426;DHT22;6277;49.824;9.562;2023-02-13T17:55:23;7.30;69.90
12426;DHT22;6277;49.824;9.562;2023-02-13T17:57:50;7.30;70.00
12426;DHT22;6277;49.824;9.562;2023-02-13T18:00:17;7.20;70.00
12426;DHT22;6277;49.824;9.562;2023-02-13T18:02:44;7.10;70.20
12426;DHT22;6277;49.824;9.562;2023-02-13T18:05:12;7.10;70.30
12426;DHT22;6277;49.824;9.562;2023-02-13T18:07:38;7.00;70.60
12426;DHT22;6277;49.824;9.562;2023-02-13T18:10:13;7.00;70.80
12426;DHT22;6277;49.824;9.562;2023-02-13T18:12:41;6.90;70.90
12426;DHT22;6277;49.824;9.562;2023-02-13T18:15:07;6.90;70.70
12426;DHT22;6277;49.824;9.562;2023-02-13T18:17:33;6.90;70.80
12426;DHT22;6277;49.824;9.562;2023-02-13T18:19:58;6.80;70.70
12426;DHT22;6277;49.824;9.562;2023-02-13T18:22:24;6.80;70.70
12426;DHT22;6277;49.824;9.562;2023-02-13T18:24:49;6.70;70.70
12426;DHT22;6277;49.824;9.562;2023-02-13T18:27:15;6.70;70.70
12426;DHT22;6277;49.824;9.562;2023-02-13T18:29:41;6.60;70.70
12426;DHT22;6277;49.824;9.562;2023-02-13T18:32:07;6.60;70.60
12426;DHT22;6277;49.824;9.562;2023-02-13T18:34:34;6.50;70.70
12426;DHT22;6277;49.824;9.562;2023-02-13T18:36:59;6.50;70.70
12426;DHT22;6277;49.824;9.562;2023-02-13T18:39:25;6.40;70.60
12426;DHT22;6277;49.824;9.562;2023-02-13T18:41:51;6.30;70.70
12426;DHT22;6277;49.824;9.562;2023-02-13T18:44:16;6.30;71.50
12426;DHT22;6277;49.824;9.562;2023-02-13T18:46:42;6.20;70.90
12426;DHT22;6277;49.824;9.562;2023-02-13T18:49:09;6.10;70.80